Time;durP1;ratioP1;P1;durP2;ratioP2;P2;SDS_P1;SDS_P2;PMS_P1;PMS_P2;Temp;Humidity;BMP_temperature;BMP_pressure;BME280_temperature;BME280_humidity;BME280_pressure;Samples;Min_cycle;Max_cycle;Signal;HPM_P1;HPM_P2
2022/11/26 00:00:49;;;;;;;2.63;2.43;;;5.70;99.90;4.70;96841.00;;;;5034085;28;20216;-68
2022/11/26 00:03:16;;;;;;;1.03;1.03;;;5.80;99.90;4.80;96842.00;;;;5034033;28;20201;-68
2022/11/26 00:05:48;;;;;;;1.33;1.23;;;5.70;99.90;4.80;96838.00;;;;5032494;28;20296;-68
2022/11/26 00:08:20;;;;;;;2.83;1.13;;;5.70;99.90;4.70;96839.00;;;;5033813;28;20269;-66
2022/11/26 00:10:52;;;;;;;0.90;0.90;;;5.70;99.90;4.70;96844.00;;;;5033762;28;20254;-67
2022/11/26 00:13:22;;;;;;;1.77;1.67;;;5.70;99.90;4.70;96850.00;;;;5033868;28;20200;-68
2022/11/26 00:15:50;;;;;;;0.97;0.97;;;5.60;99.90;4.70;96852.00;;;;5033787;28;20278;-67
2022/11/26 00:18:19;;;;;;;1.53;1.43;;;5.60;99.90;4.70;96857.00;;;;5033708;28;20208;-65
2022/11/26 00:20:52;;;;;;;1.03;1.03;;;5.60;99.90;4.70;96860.00;;;;5033831;28;20196;-69
2022/11/26 00:23:22;;;;;;;0.80;0.80;;;5.60;99.90;4.60;96862.00;;;;5033976;28;20201;-68
2022/11/26 00:25:53;;;;;;;0.80;0.80;;;5.60;99.90;4.70;96862.00;;;;5033547;28;20237;-68
2022/11/26 00:28:30;;;;;;;1.50;1.00;;;5.60;99.90;4.70;96863.00;;;;5033572;28;20221;-68
2022/11/26 00:31:01;;;;;;;1.10;1.10;;;5.60;99.90;4.60;96864.00;;;;5016279;28;20196;-69
2022/11/26 00:33:29;;;;;;;3.30;1.33;;;5.50;99.90;4.50;96865.00;;;;5033483;28;20253;-68
2022/11/26 00:36:01;;;;;;;0.60;0.60;;;5.40;99.90;4.70;96868.00;;;;5032471;28;20208;-68
2022/11/26 00:38:30;;;;;;;1.47;1.37;;;5.50;99.90;4.70;96872.00;;;;5033484;28;20227;-68
2022/11/26 00:40:59;;;;;;;1.07;1.07;;;5.60;99.90;4.60;96873.00;;;;5033479;28;20224;-68
2022/11/26 00:43:26;;;;;;;0.83;0.83;;;5.50;99.90;4.70;96873.00;;;;5033405;28;20450;-67
2022/11/26 00:45:52;;;;;;;0.80;0.80;;;5.50;99.90;4.70;96880.00;;;;5032474;28;20637;-63
2022/11/26 00:48:19;;;;;;;1.00;1.00;;;5.60;99.90;4.80;96872.00;;;;5033421;28;20205;-68
2022/11/26 00:50:50;;;;;;;0.67;0.67;;;5.60;99.90;4.80;96892.00;;;;5033274;28;20628;-68
2022/11/26 00:53:21;;;;;;;2.57;1.37;;;5.60;99.90;4.80;96891.00;;;;5016173;28;20535;-67
2022/11/26 00:55:50;;;;;;;0.70;0.70;;;5.70;99.90;4.70;96900.00;;;;5033294;28;20225;-69
2022/11/26 00:58:24;;;;;;;0.77;0.77;;;5.60;99.90;4.70;96899.00;;;;5033336;28;20207;-69
2022/11/26 01:00:52;;;;;;;1.27;1.27;;;5.60;99.90;4.80;96912.00;;;;5033312;28;20224;-68
2022/11/26 01:03:19;;;;;;;0.90;0.90;;;5.70;99.90;4.80;96908.00;;;;5016083;28;20317;-68
2022/11/26 01:05:50;;;;;;;1.07;1.07;;;5.70;99.90;4.80;96905.00;;;;5032983;28;20240;-68
2022/11/26 01:08:27;;;;;;;1.20;1.20;;;5.70;99.90;4.90;96914.00;;;;5015868;28;20637;-68
2022/11/26 01:10:53;;;;;;;0.70;0.70;;;5.70;99.90;4.90;96912.00;;;;5033192;28;20294;-65
2022/11/26 01:13:20;;;;;;;1.53;1.43;;;5.80;99.90;4.90;96921.00;;;;5015751;28;20502;-68
2022/11/26 01:15:47;;;;;;;0.90;0.90;;;5.80;99.90;5.00;96921.00;;;;5032956;28;20201;-69
2022/11/26 01:18:17;;;;;;;1.90;1.83;;;5.80;99.90;4.90;96927.00;;;;5018780;28;20224;-69
2022/11/26 01:20:44;;;;;;;0.90;0.87;;;5.80;99.90;4.80;96929.00;;;;5018965;28;20385;-68
2022/11/26 01:23:13;;;;;;;1.37;1.27;;;5.70;99.90;4.80;96934.00;;;;5036282;28;20232;-69
2022/11/26 01:25:41;;;;;;;1.83;1.73;;;5.70;99.90;4.70;96931.00;;;;5035386;28;20217;-69
2022/11/26 01:28:12;;;;;;;0.63;0.63;;;5.60;99.90;4.70;96931.00;;;;5036227;28;20261;-68
2022/11/26 01:30:40;;;;;;;0.93;0.93;;;5.60;99.90;4.70;96941.00;;;;5036357;28;20201;-68
2022/11/26 01:33:07;;;;;;;2.53;2.20;;;5.70;99.90;4.70;96942.00;;;;5018793;28;20211;-66
2022/11/26 01:35:35;;;;;;;0.73;0.73;;;5.70;99.90;4.70;96940.00;;;;5036275;28;20770;-65
2022/11/26 01:38:02;;;;;;;1.23;1.23;;;5.60;99.90;4.60;96943.00;;;;5036289;28;20212;-67
2022/11/26 01:40:48;;;;;;;0.93;0.93;;;5.50;99.90;4.50;96943.00;;;;5035953;28;20289;-66
2022/11/26 01:43:25;;;;;;;0.90;0.90;;;5.50;99.90;4.50;96946.00;;;;5035933;28;20628;-67
2022/11/26 01:45:53;;;;;;;0.80;0.80;;;5.50;99.90;4.60;96956.00;;;;5035898;28;20259;-68
2022/11/26 01:48:28;;;;;;;1.53;1.43;;;5.50;99.90;4.60;96962.00;;;;5036017;28;20197;-66
2022/11/26 01:51:03;;;;;;;3.27;2.27;;;5.50;99.90;4.50;96958.00;;;;5035829;28;20206;-68
2022/11/26 01:53:45;;;;;;;0.73;0.73;;;5.50;99.90;4.60;96962.00;;;;5036140;28;20296;-63
2022/11/26 01:56:26;;;;;;;0.70;0.70;;;5.50;99.90;4.50;96964.00;;;;5035897;28;20207;-67
2022/11/26 01:59:00;;;;;;;1.10;1.10;;;5.40;99.90;4.50;96973.00;;;;5035902;28;20208;-66
2022/11/26 02:01:31;;;;;;;1.53;1.40;;;5.50;99.90;4.50;96968.00;;;;5035921;28;20186;-68
2022/11/26 02:04:11;;;;;;;0.70;0.70;;;5.40;99.90;4.50;96962.00;;;;5035778;28;20255;-69
2022/11/26 02:06:37;;;;;;;0.80;0.80;;;5.40;99.90;4.50;96965.00;;;;5035777;28;20201;-70
2022/11/26 02:09:08;;;;;;;1.03;1.03;;;5.40;99.90;4.50;96967.00;;;;5035594;28;20224;-68
2022/11/26 02:11:35;;;;;;;0.77;0.77;;;5.40;99.90;4.50;96967.00;;;;5035590;28;20226;-68
2022/11/26 02:14:08;;;;;;;0.87;0.87;;;5.40;99.90;4.60;96976.00;;;;5035540;28;20234;-68
2022/11/26 02:17:11;;;;;;;0.83;0.83;;;5.40;99.90;4.60;96980.00;;;;5035657;28;20196;-68
2022/11/26 02:20:24;;;;;;;0.70;0.70;;;5.50;99.90;4.70;96984.00;;;;5028879;28;20224;-68
2022/11/26 02:23:42;;;;;;;1.20;1.10;;;5.50;99.90;4.40;96989.00;;;;5035496;28;20201;-65
2022/11/26 02:27:01;;;;;;;1.00;1.00;;;5.30;99.90;4.30;96983.00;;;;5035395;28;20248;-68
2022/11/26 02:30:08;;;;;;;0.77;0.77;;;5.20;99.90;4.30;96998.00;;;;5035375;28;20196;-64
2022/11/26 02:33:00;;;;;;;0.93;0.93;;;5.10;99.90;4.30;97010.00;;;;5035362;28;20650;-67
2022/11/26 02:35:38;;;;;;;2.10;1.43;;;5.20;99.90;4.30;96999.00;;;;5035327;28;20201;-69
2022/11/26 02:38:12;;;;;;;0.73;0.73;;;5.20;99.90;4.30;96990.00;;;;5035302;28;20274;-67
2022/11/26 02:40:39;;;;;;;1.00;1.00;;;5.20;99.90;4.30;97002.00;;;;5035103;28;20224;-68
2022/11/26 02:43:05;;;;;;;0.87;0.87;;;5.20;99.90;4.40;97002.00;;;;5035059;28;20200;-68
2022/11/26 02:45:38;;;;;;;1.47;1.23;;;5.20;99.90;4.40;97006.00;;;;5034988;28;20302;-68
2022/11/26 02:48:10;;;;;;;1.00;1.00;;;5.30;99.90;4.40;97007.00;;;;5034884;28;20224;-67
2022/11/26 02:50:42;;;;;;;0.70;0.70;;;5.30;99.90;4.40;97011.00;;;;5035044;28;20201;-68
2022/11/26 02:53:10;;;;;;;0.80;0.80;;;5.30;99.90;4.40;97010.00;;;;5034758;28;20228;-68
2022/11/26 02:55:42;;;;;;;1.13;1.13;;;5.30;99.90;4.40;97007.00;;;;5034903;28;20181;-68
2022/11/26 02:58:11;;;;;;;1.07;1.07;;;5.30;99.90;4.40;97018.00;;;;5034907;28;20197;-65
2022/11/26 03:00:41;;;;;;;2.13;1.93;;;5.30;99.90;4.40;97029.00;;;;5034867;28;20216;-68
2022/11/26 03:03:21;;;;;;;1.07;1.07;;;5.30;99.90;4.30;97024.00;;;;5034819;28;20255;-68
2022/11/26 03:05:55;;;;;;;0.90;0.90;;;5.30;99.90;4.30;97034.00;;;;5017419;28;20225;-68
2022/11/26 03:08:22;;;;;;;0.90;0.90;;;5.30;99.90;4.30;97020.00;;;;5034597;28;20278;-68
2022/11/26 03:10:49;;;;;;;0.80;0.80;;;5.30;99.90;4.40;97027.00;;;;5034554;28;20664;-68
2022/11/26 03:13:16;;;;;;;1.30;1.20;;;5.30;99.90;4.30;97029.00;;;;5034695;28;20245;-67
2022/11/26 03:15:43;;;;;;;1.13;1.13;;;5.30;99.90;4.20;97032.00;;;;5034450;28;20224;-67
2022/11/26 03:18:10;;;;;;;0.80;0.80;;;5.10;99.90;4.10;97030.00;;;;5017289;28;20210;-68
2022/11/26 03:20:36;;;;;;;0.90;0.90;;;5.10;99.90;4.20;97032.00;;;;5034447;28;20620;-66
2022/11/26 03:23:03;;;;;;;1.10;1.10;;;5.10;99.90;4.20;97036.00;;;;5034616;28;20200;-65
2022/11/26 03:25:29;;;;;;;0.80;0.80;;;5.10;99.90;4.20;97034.00;;;;5034478;28;20212;-68
2022/11/26 03:27:56;;;;;;;1.33;1.07;;;5.10;99.90;4.20;97042.00;;;;5016983;28;20228;-67
2022/11/26 03:30:22;;;;;;;1.30;1.23;;;5.10;99.90;4.20;97042.00;;;;5034429;28;20208;-67
2022/11/26 03:32:49;;;;;;;0.90;0.90;;;5.10;99.90;4.20;97041.00;;;;5016953;28;20224;-67
2022/11/26 03:35:16;;;;;;;1.43;1.33;;;5.10;99.90;4.10;97040.00;;;;5017163;28;20210;-67
2022/11/26 03:37:43;;;;;;;1.40;1.30;;;5.10;99.90;4.00;97046.00;;;;5034129;28;20224;-66
2022/11/26 03:40:10;;;;;;;1.10;1.10;;;5.00;99.90;4.10;97032.00;;;;5033679;28;20274;-67
2022/11/26 03:42:37;;;;;;;1.00;1.00;;;5.00;99.90;4.10;97050.00;;;;5034216;28;20192;-67
2022/11/26 03:45:05;;;;;;;1.33;1.30;;;5.00;99.90;4.10;97045.00;;;;5034287;28;20219;-64
2022/11/26 03:47:31;;;;;;;1.63;1.53;;;5.00;99.90;4.10;97046.00;;;;5034057;28;20202;-67
2022/11/26 03:49:58;;;;;;;1.17;1.17;;;5.00;99.90;4.10;97046.00;;;;5033956;28;20661;-64
2022/11/26 03:52:25;;;;;;;1.30;1.20;;;5.00;99.90;4.10;97056.00;;;;5033944;28;20640;-62
2022/11/26 03:54:54;;;;;;;1.50;1.40;;;5.00;99.90;4.10;97054.00;;;;5034002;28;20228;-67
2022/11/26 03:57:21;;;;;;;5.97;1.47;;;5.00;99.90;4.00;97059.00;;;;5033982;28;20196;-67
2022/11/26 03:59:47;;;;;;;0.73;0.73;;;5.00;99.90;4.10;97060.00;;;;5033787;28;20276;-66
2022/11/26 04:02:13;;;;;;;1.27;1.17;;;5.00;99.90;4.10;97063.00;;;;5033910;28;20204;-65
2022/11/26 04:04:40;;;;;;;0.80;0.80;;;5.00;99.90;4.00;97051.00;;;;5033971;28;20220;-68
2022/11/26 04:07:07;;;;;;;1.03;1.03;;;5.00;99.90;4.00;97061.00;;;;5033869;28;20192;-67
2022/11/26 04:09:33;;;;;;;1.50;1.10;;;5.00;99.90;3.90;97065.00;;;;5033905;28;20203;-66
2022/11/26 04:12:00;;;;;;;0.90;0.90;;;4.90;99.90;3.80;97067.00;;;;5033642;28;20263;-66
2022/11/26 04:14:26;;;;;;;1.47;1.37;;;4.80;99.90;3.80;97053.00;;;;5033715;28;20700;-66
2022/11/26 04:16:53;;;;;;;0.80;0.80;;;4.80;99.90;3.70;97058.00;;;;5016204;28;20722;-67
2022/11/26 04:19:19;;;;;;;0.60;0.60;;;4.70;99.90;3.70;97041.00;;;;5033676;28;20674;-67
2022/11/26 04:21:45;;;;;;;1.37;1.27;;;4.70;99.90;3.70;97055.00;;;;5033590;28;20192;-68
2022/11/26 04:24:12;;;;;;;0.90;0.90;;;4.70;99.90;3.60;97062.00;;;;5033595;28;20208;-63
2022/11/26 04:26:39;;;;;;;1.00;1.00;;;4.60;99.90;3.40;97047.00;;;;5033673;28;20192;-67
2022/11/26 04:29:06;;;;;;;0.80;0.80;;;4.40;99.90;3.40;97059.00;;;;5033479;28;20260;-65
2022/11/26 04:31:32;;;;;;;3.73;0.90;;;4.40;99.90;3.50;97059.00;;;;5033675;28;20201;-68
2022/11/26 04:33:59;;;;;;;0.70;0.70;;;4.40;99.90;3.50;97065.00;;;;5033506;28;20247;-68
2022/11/26 04:36:26;;;;;;;3.23;2.10;;;4.40;99.90;3.60;97065.00;;;;5033713;28;20627;-67
2022/11/26 04:38:52;;;;;;;1.00;1.00;;;4.50;99.90;3.60;97066.00;;;;5033387;28;20196;-68
2022/11/26 04:41:19;;;;;;;5.03;1.40;;;4.50;99.90;3.70;97066.00;;;;5033361;28;20230;-68
2022/11/26 04:43:46;;;;;;;0.70;0.70;;;4.60;99.90;3.70;97057.00;;;;5033544;28;20216;-68
2022/11/26 04:46:12;;;;;;;1.43;1.43;;;4.70;99.90;3.70;97060.00;;;;5033216;28;20255;-62
2022/11/26 04:48:39;;;;;;;0.83;0.83;;;4.60;99.90;3.60;97061.00;;;;5033360;28;20270;-67
2022/11/26 04:51:07;;;;;;;0.70;0.70;;;4.60;99.90;3.60;97058.00;;;;5033496;28;20216;-67
2022/11/26 04:53:34;;;;;;;0.60;0.60;;;4.60;99.90;3.50;97022.00;;;;5036801;28;20200;-62
2022/11/26 04:56:00;;;;;;;1.37;1.27;;;4.40;99.90;3.40;97048.00;;;;5019291;28;20197;-67
2022/11/26 04:58:27;;;;;;;0.90;0.90;;;4.40;99.90;3.30;97047.00;;;;5036807;28;20304;-66
2022/11/26 05:00:53;;;;;;;1.37;1.27;;;4.40;99.90;3.20;97061.00;;;;5036608;28;20194;-67
2022/11/26 05:03:20;;;;;;;0.70;0.70;;;4.30;99.90;3.20;97056.00;;;;5036577;28;20223;-66
2022/11/26 05:05:46;;;;;;;1.70;1.60;;;4.20;99.90;3.20;97060.00;;;;5019077;28;20255;-63
2022/11/26 05:08:13;;;;;;;1.10;1.10;;;4.20;99.90;3.20;97063.00;;;;5018894;28;20239;-67
2022/11/26 05:10:39;;;;;;;1.10;1.10;;;;;3.00;97065.00;;;;5036519;28;20203;-67
2022/11/26 05:13:06;;;;;;;1.93;1.83;;;4.10;99.90;3.00;97064.00;;;;5036377;28;20224;-67
2022/11/26 05:15:33;;;;;;;1.30;1.20;;;4.10;99.90;3.00;97078.00;;;;5036529;28;20205;-67
2022/11/26 05:18:00;;;;;;;9.60;2.27;;;;;3.00;97074.00;;;;5036423;28;20262;-67
2022/11/26 05:20:26;;;;;;;3.73;2.03;;;3.90;99.90;3.00;97078.00;;;;5036250;28;20612;-67
2022/11/26 05:22:52;;;;;;;1.13;1.10;;;4.00;99.90;2.90;97079.00;;;;5036421;28;20197;-67
2022/11/26 05:25:19;;;;;;;3.30;2.40;;;3.90;99.90;2.80;97082.00;;;;5036018;28;20235;-67
2022/11/26 05:27:45;;;;;;;1.63;1.53;;;3.90;99.90;2.80;97075.00;;;;5036175;28;20196;-67
2022/11/26 05:30:13;;;;;;;1.30;1.20;;;3.90;99.90;2.80;97089.00;;;;5036209;28;20228;-67
2022/11/26 05:32:42;;;;;;;0.90;0.90;;;3.80;99.90;2.70;97089.00;;;;5036006;28;20212;-65
2022/11/26 05:35:09;;;;;;;0.73;0.73;;;3.70;99.90;2.70;97084.00;;;;5036002;28;20193;-62
2022/11/26 05:37:36;;;;;;;0.70;0.70;;;3.70;99.90;2.60;97102.00;;;;5036108;28;20181;-62
2022/11/26 05:40:04;;;;;;;0.80;0.80;;;3.60;99.90;2.50;97102.00;;;;5036169;28;20201;-68
2022/11/26 05:42:31;;;;;;;0.70;0.70;;;3.50;99.90;2.50;97104.00;;;;5035835;28;20290;-68
2022/11/26 05:44:57;;;;;;;1.27;1.17;;;3.50;99.90;2.40;97104.00;;;;5036117;28;20247;-69
2022/11/26 05:47:24;;;;;;;1.00;1.00;;;3.40;99.90;2.50;97105.00;;;;5035999;28;20282;-68
2022/11/26 05:49:51;;;;;;;0.80;0.80;;;3.50;99.90;2.50;97115.00;;;;5035954;28;20255;-67
2022/11/26 05:52:18;;;;;;;0.90;0.90;;;3.50;99.90;2.40;97079.00;;;;5035743;28;20227;-69
2022/11/26 05:54:44;;;;;;;0.97;0.97;;;3.50;99.90;2.50;97108.00;;;;5035921;28;20570;-69
2022/11/26 05:57:11;;;;;;;0.80;0.80;;;3.40;99.90;2.50;97105.00;;;;5035718;28;20286;-65
2022/11/26 05:59:37;;;;;;;0.73;0.73;;;3.60;99.90;2.50;97113.00;;;;5035756;28;20354;-68
2022/11/26 06:02:03;;;;;;;2.40;1.53;;;3.50;99.90;2.50;97111.00;;;;5035164;28;20224;-69
2022/11/26 06:04:32;;;;;;;0.90;0.90;;;3.50;99.90;2.30;97113.00;;;;5035830;28;20197;-67
2022/11/26 06:06:59;;;;;;;0.70;0.70;;;3.30;99.90;2.10;97111.00;;;;5035540;28;20291;-68
2022/11/26 06:09:28;;;;;;;1.03;1.03;;;3.20;99.90;2.10;97110.00;;;;5035598;28;20200;-67
2022/11/26 06:11:56;;;;;;;1.10;1.10;;;3.20;99.90;2.10;97116.00;;;;5035429;28;20228;-66
2022/11/26 06:14:23;;;;;;;0.70;0.70;;;3.10;99.90;2.10;97120.00;;;;5035523;28;20200;-68
2022/11/26 06:16:52;;;;;;;1.73;1.63;;;3.00;99.90;2.10;97120.00;;;;5035404;28;20220;-67
2022/11/26 06:19:18;;;;;;;1.40;1.30;;;3.10;99.90;2.10;97123.00;;;;5035458;28;20200;-67
2022/11/26 06:21:44;;;;;;;1.07;1.07;;;3.10;99.90;2.10;97123.00;;;;5035251;28;20200;-68
2022/11/26 06:24:12;;;;;;;0.83;0.83;;;3.10;99.90;2.00;97117.00;;;;5035327;28;20216;-67
2022/11/26 06:26:38;;;;;;;0.70;0.70;;;3.00;99.90;2.00;97123.00;;;;5035084;28;20224;-67
2022/11/26 06:29:07;;;;;;;0.80;0.80;;;3.10;99.90;2.10;97130.00;;;;5035328;28;20197;-67
2022/11/26 06:31:33;;;;;;;0.90;0.90;;;3.00;99.90;2.00;97123.00;;;;5035231;28;20621;-64
2022/11/26 06:34:00;;;;;;;0.80;0.80;;;3.00;99.90;2.00;97129.00;;;;5035189;28;20204;-68
2022/11/26 06:36:26;;;;;;;0.93;0.93;;;3.00;99.90;2.10;97141.00;;;;5035239;28;20207;-68
2022/11/26 06:38:53;;;;;;;0.90;0.90;;;3.10;99.90;2.10;97139.00;;;;5035295;28;20201;-67
2022/11/26 06:41:20;;;;;;;0.70;0.70;;;3.10;99.90;2.20;97146.00;;;;5035161;28;20227;-66
2022/11/26 06:43:46;;;;;;;0.90;0.90;;;3.20;99.90;2.20;97160.00;;;;5017864;28;20204;-67
2022/11/26 06:46:13;;;;;;;1.10;1.10;;;3.20;99.90;2.30;97156.00;;;;5034007;28;20224;-65
2022/11/26 06:48:41;;;;;;;0.80;0.80;;;3.20;99.90;2.30;97171.00;;;;5035038;28;20221;-67
2022/11/26 06:51:11;;;;;;;0.70;0.70;;;3.30;99.90;2.30;97165.00;;;;5034854;28;20569;-67
2022/11/26 06:53:37;;;;;;;2.37;1.83;;;3.30;99.90;2.30;97174.00;;;;5034834;28;20220;-65
2022/11/26 06:56:09;;;;;;;0.70;0.70;;;3.30;99.90;2.30;97171.00;;;;5034891;28;20210;-68
2022/11/26 06:58:36;;;;;;;0.80;0.80;;;3.20;99.90;2.20;97184.00;;;;5034800;28;20228;-68
2022/11/26 07:01:08;;;;;;;0.90;0.90;;;3.20;99.90;2.30;97181.00;;;;5034795;28;20211;-65
2022/11/26 07:03:34;;;;;;;0.87;0.87;;;3.30;99.90;2.30;97187.00;;;;5034869;28;20220;-68
2022/11/26 07:06:01;;;;;;;0.77;0.77;;;3.30;99.90;2.40;97192.00;;;;5034612;28;20220;-69
2022/11/26 07:08:30;;;;;;;1.03;1.03;;;3.30;99.90;2.30;97204.00;;;;5017221;28;20256;-67
2022/11/26 07:11:02;;;;;;;0.87;0.87;;;3.40;99.90;2.30;97199.00;;;;5034720;28;20556;-66
2022/11/26 07:13:28;;;;;;;0.80;0.80;;;3.30;99.90;2.40;97203.00;;;;5034133;28;20225;-68
2022/11/26 07:15:55;;;;;;;0.90;0.90;;;3.30;99.90;2.40;97210.00;;;;5033923;28;20204;-68
2022/11/26 07:18:24;;;;;;;1.17;1.17;;;3.40;99.90;2.50;97216.00;;;;5034403;28;20224;-68
2022/11/26 07:20:50;;;;;;;1.33;1.30;;;3.40;99.90;2.50;97219.00;;;;5034505;28;20629;-65
2022/11/26 07:23:17;;;;;;;1.70;1.60;;;3.50;99.90;2.50;97216.00;;;;5034562;28;20290;-68
2022/11/26 07:25:43;;;;;;;1.03;1.03;;;3.40;99.90;2.50;97218.00;;;;5034406;28;20602;-69
2022/11/26 07:28:12;;;;;;;1.97;1.87;;;3.50;99.90;2.50;97219.00;;;;5034199;28;20236;-64
2022/11/26 07:30:38;;;;;;;2.17;2.00;;;3.50;99.90;2.60;97220.00;;;;5034386;28;20204;-69
2022/11/26 07:33:06;;;;;;;4.67;2.00;;;;;2.60;97220.00;;;;5034239;28;20212;-68
2022/11/26 07:35:33;;;;;;;3.00;2.77;;;3.50;99.90;2.60;97225.00;;;;5034359;28;20689;-65
2022/11/26 07:37:59;;;;;;;1.77;1.67;;;3.60;99.90;2.60;97222.00;;;;5016994;28;20231;-63
2022/11/26 07:40:26;;;;;;;3.40;3.07;;;3.50;99.90;2.50;97228.00;;;;5034196;28;20204;-68
2022/11/26 07:42:52;;;;;;;6.93;4.30;;;3.40;99.90;2.60;97222.00;;;;5034318;28;20201;-66
2022/11/26 07:45:18;;;;;;;3.30;3.10;;;3.50;99.90;2.80;97222.00;;;;5034137;28;20221;-63
2022/11/26 07:47:45;;;;;;;3.67;3.40;;;3.70;99.90;2.90;97234.00;;;;5034216;28;20200;-68
2022/11/26 07:50:12;;;;;;;9.43;4.00;;;3.70;99.90;3.00;97227.00;;;;5016805;28;20279;-67
2022/11/26 07:52:38;;;;;;;3.70;2.17;;;3.90;99.90;3.00;97225.00;;;;5034138;28;20219;-66
2022/11/26 07:55:05;;;;;;;3.50;3.17;;;3.90;99.90;3.00;97237.00;;;;5016672;28;20200;-66
2022/11/26 07:57:32;;;;;;;2.33;2.13;;;3.90;99.90;3.20;97255.00;;;;5034146;28;20262;-68
2022/11/26 07:59:58;;;;;;;2.67;2.47;;;4.00;99.90;3.20;97242.00;;;;5033991;28;20196;-61
2022/11/26 08:02:25;;;;;;;1.80;1.70;;;4.00;99.90;3.20;97242.00;;;;5016598;28;20223;-65
2022/11/26 08:04:51;;;;;;;2.33;1.83;;;4.10;99.90;3.20;97237.00;;;;5033924;28;20311;-66
2022/11/26 08:07:18;;;;;;;2.60;2.50;;;4.10;99.90;3.00;97241.00;;;;5034015;28;20571;-67
2022/11/26 08:09:45;;;;;;;0.97;0.97;;;4.00;99.90;3.10;97261.00;;;;5033855;28;20238;-66
2022/11/26 08:12:12;;;;;;;2.10;1.80;;;4.00;99.90;3.10;97249.00;;;;5033767;28;20263;-66
2022/11/26 08:14:38;;;;;;;4.80;3.37;;;4.00;99.90;3.20;97244.00;;;;5033724;28;20228;-64
2022/11/26 08:17:07;;;;;;;2.53;2.40;;;4.00;99.90;3.00;97237.00;;;;5033845;28;20631;-66
2022/11/26 08:19:35;;;;;;;2.83;2.63;;;4.00;99.90;3.10;97237.00;;;;5033655;28;20286;-64
2022/11/26 08:22:02;;;;;;;4.00;2.67;;;4.00;99.90;3.10;97239.00;;;;5016474;28;20208;-67
2022/11/26 08:24:30;;;;;;;4.13;3.23;;;4.00;99.90;3.10;97244.00;;;;5033538;28;20220;-67
2022/11/26 08:26:58;;;;;;;1.00;1.00;;;4.00;99.90;3.20;97236.00;;;;5036562;28;20255;-67
2022/11/26 08:29:25;;;;;;;1.87;1.77;;;4.00;99.90;3.30;97243.00;;;;5036991;28;20239;-66
2022/11/26 08:31:53;;;;;;;5.10;3.23;;;4.10;99.90;3.50;97229.00;;;;5037264;28;20222;-68
2022/11/26 08:34:21;;;;;;;3.37;3.07;;;4.20;99.90;3.60;97230.00;;;;5037063;28;20228;-73
2022/11/26 08:36:53;;;;;;;3.27;2.70;;;4.40;99.90;3.70;97238.00;;;;5036860;28;20208;-64
2022/11/26 08:39:20;;;;;;;3.10;2.43;;;4.50;99.90;3.80;97232.00;;;;5036794;28;20520;-62
2022/11/26 08:41:47;;;;;;;1.13;1.00;;;4.70;99.90;3.90;97240.00;;;;5036814;28;20204;-59
2022/11/26 08:44:13;;;;;;;1.10;1.10;;;4.70;99.90;4.10;97236.00;;;;5035786;28;20230;-57
2022/11/26 08:46:41;;;;;;;1.00;1.00;;;4.80;99.70;4.00;97236.00;;;;5036831;28;20647;-57
2022/11/26 08:49:13;;;;;;;1.23;1.20;;;4.80;98.80;4.10;97233.00;;;;5036840;28;20519;-59
2022/11/26 08:51:40;;;;;;;1.50;1.40;;;4.80;99.30;4.20;97247.00;;;;5019496;28;20201;-59
2022/11/26 08:54:07;;;;;;;1.20;1.13;;;4.90;99.50;4.20;97240.00;;;;5036715;28;20209;-59
2022/11/26 08:56:34;;;;;;;0.80;0.80;;;4.90;98.50;4.40;97248.00;;;;5036819;28;20192;-59
2022/11/26 08:59:01;;;;;;;1.13;1.13;;;5.10;99.90;4.50;97247.00;;;;5036666;28;20212;-60
2022/11/26 09:01:31;;;;;;;1.57;1.47;;;5.20;99.60;4.70;97252.00;;;;5036584;28;20225;-60
2022/11/26 09:04:00;;;;;;;11.00;1.53;;;5.50;99.40;4.90;97254.00;;;;5036504;28;20268;-59
2022/11/26 09:06:30;;;;;;;1.30;1.20;;;5.60;99.30;5.00;97256.00;;;;5036419;28;20236;-58
2022/11/26 09:09:11;;;;;;;1.07;1.07;;;5.70;99.30;5.10;97255.00;;;;5036427;28;20239;-59
2022/11/26 09:11:41;;;;;;;1.00;1.00;;;5.80;98.60;5.20;97257.00;;;;5036393;28;20289;-58
2022/11/26 09:14:09;;;;;;;1.17;1.17;;;5.90;98.50;5.20;97248.00;;;;5035491;28;20540;-61
2022/11/26 09:16:36;;;;;;;1.37;1.33;;;6.00;97.50;5.10;97242.00;;;;5036427;28;20220;-60
2022/11/26 09:19:04;;;;;;;1.43;1.33;;;6.00;97.70;5.10;97256.00;;;;5036514;28;20201;-64
2022/11/26 09:21:32;;;;;;;0.97;0.97;;;5.90;97.80;5.00;97252.00;;;;5036238;28;20267;-61
2022/11/26 09:23:58;;;;;;;1.60;1.50;;;5.90;97.40;5.20;97248.00;;;;5035526;28;20201;-59
2022/11/26 09:26:25;;;;;;;1.27;1.17;;;5.90;97.80;5.20;97262.00;;;;5036228;28;20319;-65
2022/11/26 09:28:52;;;;;;;1.23;1.23;;;5.90;97.50;5.20;97256.00;;;;5018939;28;20224;-61
2022/11/26 09:31:19;;;;;;;0.80;0.80;;;;;5.50;97254.00;;;;5036155;28;20234;-63
2022/11/26 09:33:46;;;;;;;1.03;1.03;;;;;5.70;97265.00;;;;5036193;28;20219;-62
2022/11/26 09:36:15;;;;;;;0.80;0.80;;;;;5.80;97277.00;;;;5035997;28;20188;-64
2022/11/26 09:38:42;;;;;;;1.00;1.00;;;;;5.90;97275.00;;;;5035366;28;20209;-62
2022/11/26 09:41:26;;;;;;;1.13;1.13;;;;;6.00;97274.00;;;;5035992;28;20199;-61
2022/11/26 09:44:04;;;;;;;1.10;1.10;;;;;5.90;97263.00;;;;5018829;28;20211;-61
2022/11/26 09:46:39;;;;;;;0.80;0.80;;;;;6.10;97272.00;;;;5035969;28;20229;-60
2022/11/26 09:49:12;;;;;;;1.73;1.63;;;;;6.30;97270.00;;;;5036103;28;20219;-66
2022/11/26 09:51:41;;;;;;;0.73;0.73;;;;;6.50;97271.00;;;;5036000;28;20280;-63
2022/11/26 09:54:14;;;;;;;1.23;1.23;;;;;6.80;97272.00;;;;5036140;28;20191;-64
2022/11/26 09:56:41;;;;;;;1.47;1.37;;;;;6.70;97269.00;;;;5036012;28;20208;-62
2022/11/26 09:59:15;;;;;;;1.10;1.10;;;;;6.60;97274.00;;;;5035723;28;20205;-61
2022/11/26 10:01:43;;;;;;;0.87;0.87;;;;;6.70;97274.00;;;;5035038;28;20500;-61
2022/11/26 10:04:29;;;;;;;1.03;1.03;;;7.60;95.00;6.80;97277.00;;;;5035733;28;20205;-61
2022/11/26 10:07:08;;;;;;;0.90;0.90;;;7.60;95.70;6.80;97277.00;;;;5035673;28;20681;-63
2022/11/26 10:09:56;;;;;;;0.87;0.87;;;7.60;95.50;6.90;97257.00;;;;5035812;28;20192;-64
2022/11/26 10:12:39;;;;;;;4.77;1.03;;;7.70;95.30;7.10;97270.00;;;;5035703;28;20200;-62
2022/11/26 10:15:16;;;;;;;1.00;1.00;;;7.90;94.10;7.00;97277.00;;;;5035592;28;20204;-63
2022/11/26 10:17:53;;;;;;;0.90;0.90;;;;;6.90;97265.00;;;;5035579;28;20208;-62
2022/11/26 10:20:56;;;;;;;1.57;1.47;;;7.80;95.80;7.00;97270.00;;;;5018104;28;20214;-62
2022/11/26 10:23:31;;;;;;;1.77;1.67;;;7.90;96.30;7.10;97273.00;;;;5034408;28;20298;-61
2022/11/26 10:26:11;;;;;;;1.00;1.00;;;7.90;96.90;7.00;97276.00;;;;5017935;28;20223;-62
2022/11/26 10:28:44;;;;;;;1.47;1.37;;;7.90;96.40;7.30;97265.00;;;;5035205;28;20192;-63
2022/11/26 10:31:20;;;;;;;1.63;1.53;;;8.00;97.10;7.30;97264.00;;;;5035510;28;20252;-63
2022/11/26 10:33:55;;;;;;;1.00;1.00;;;8.10;97.60;7.50;97267.00;;;;5035378;28;20254;-63
2022/11/26 10:36:26;;;;;;;1.00;1.00;;;8.30;97.00;7.70;97269.00;;;;5035269;28;20196;-62
2022/11/26 10:38:55;;;;;;;1.97;1.53;;;8.40;97.20;7.70;97271.00;;;;5017885;28;20209;-62
2022/11/26 10:41:25;;;;;;;1.03;1.03;;;8.50;96.60;7.90;97255.00;;;;5034952;28;20339;-62
2022/11/26 10:43:53;;;;;;;2.20;2.00;;;8.60;95.50;8.40;97256.00;;;;5035145;28;20216;-63
2022/11/26 10:46:33;;;;;;;0.60;0.60;;;8.90;99.60;8.60;97235.00;;;;5035003;28;20259;-61
2022/11/26 10:49:22;;;;;;;1.63;1.03;;;9.10;96.20;9.10;97254.00;;;;5035108;28;20258;-61
2022/11/26 10:51:53;;;;;;;0.70;0.70;;;9.50;93.60;9.50;97245.00;;;;5034917;28;20683;-64
2022/11/26 10:54:30;;;;;;;2.00;1.90;;;;;9.90;97232.00;;;;5034987;28;20197;-61
2022/11/26 10:57:10;;;;;;;0.70;0.70;;;10.10;89.00;10.40;97217.00;;;;5034853;28;20662;-62
2022/11/26 10:59:46;;;;;;;0.70;0.70;;;10.50;87.20;10.70;97211.00;;;;5034926;28;20556;-64
2022/11/26 11:02:29;;;;;;;0.53;0.53;;;10.70;83.20;11.70;97196.00;;;;5034810;28;20200;-62
2022/11/26 11:05:05;;;;;;;0.63;0.63;;;11.30;80.30;12.20;97198.00;;;;5034813;28;20662;-62
2022/11/26 11:07:41;;;;;;;0.60;0.60;;;11.70;77.10;12.60;97179.00;;;;5034710;28;20216;-62
2022/11/26 11:10:16;;;;;;;0.67;0.67;;;12.10;72.70;13.60;97188.00;;;;5034942;28;20220;-62
2022/11/26 11:12:48;;;;;;;3.80;1.07;;;12.70;69.20;14.40;97183.00;;;;5017360;28;20259;-62
2022/11/26 11:15:23;;;;;;;0.60;0.60;;;13.30;67.10;14.70;97175.00;;;;5034551;28;20636;-62
2022/11/26 11:17:57;;;;;;;0.87;0.87;;;;;15.60;97172.00;;;;5034843;28;20195;-62
2022/11/26 11:20:31;;;;;;;0.70;0.70;;;14.40;52.50;15.90;97181.00;;;;5034530;28;20219;-64
2022/11/26 11:23:03;;;;;;;8.93;0.90;;;14.80;48.80;17.10;97188.00;;;;5017232;28;20262;-64
2022/11/26 11:25:33;;;;;;;1.23;1.13;;;15.70;49.20;17.20;97179.00;;;;5034503;28;20710;-62
2022/11/26 11:28:17;;;;;;;0.87;0.87;;;16.10;43.50;16.50;97222.00;;;;5017011;28;20200;-62